Time;durP1;ratioP1;P1;durP2;ratioP2;P2;SDS_P1;SDS_P2;PMS_P1;PMS_P2;Temp;Humidity;BMP_temperature;BMP_pressure;BME280_temperature;BME280_humidity;BME280_pressure;Samples;Min_cycle;Max_cycle;Signal;HPM_P1;HPM_P2
2023/10/26 00:01:01;;;;;;;28.77;15.00;;;;;;;;;;5069538;28;20029;-58
2023/10/26 00:03:27;;;;;;;9.82;5.97;;;;;;;;;;5069679;28;20467;-58
2023/10/26 00:05:54;;;;;;;2.08;1.05;;;;;;;;;;5069291;28;20036;-59
2023/10/26 00:08:21;;;;;;;18.27;1.63;;;;;;;;;;5081120;28;20116;-58
2023/10/26 00:10:47;;;;;;;0.52;0.50;;;;;;;;;;5094583;28;20043;-58
2023/10/26 00:13:15;;;;;;;0.75;0.60;;;;;;;;;;5083313;28;20025;-58
2023/10/26 00:15:42;;;;;;;1.33;0.67;;;;;;;;;;5074230;28;20029;-59
2023/10/26 00:18:09;;;;;;;1.07;0.60;;;;;;;;;;5074341;28;20025;-59
2023/10/26 00:20:36;;;;;;;2.30;0.97;;;;;;;;;;5070301;28;20017;-59
2023/10/26 00:23:03;;;;;;;2.03;0.57;;;;;;;;;;5069297;28;20033;-59
2023/10/26 00:25:29;;;;;;;0.53;0.33;;;;;;;;;;5062546;28;20414;-59
2023/10/26 00:27:56;;;;;;;54.90;2.57;;;;;;;;;;5077844;28;20032;-60
2023/10/26 00:30:24;;;;;;;4.43;0.70;;;;;;;;;;5071895;28;20089;-59
2023/10/26 00:32:50;;;;;;;0.60;0.47;;;;;;;;;;5073840;28;20043;-59
2023/10/26 00:35:17;;;;;;;0.67;0.57;;;;;;;;;;5074023;28;20024;-59
2023/10/26 00:37:43;;;;;;;0.77;0.50;;;;;;;;;;5073822;28;20027;-59
2023/10/26 00:40:10;;;;;;;0.77;0.47;;;;;;;;;;5089469;28;20020;-59
2023/10/26 00:42:37;;;;;;;1.67;0.83;;;;;;;;;;5090502;28;20036;-59
2023/10/26 00:45:04;;;;;;;1.20;0.77;;;;;;;;;;5088867;28;20088;-59
2023/10/26 00:47:31;;;;;;;1.50;0.77;;;;;;;;;;5089106;28;20470;-59
2023/10/26 00:49:59;;;;;;;2.83;0.80;;;;;;;;;;5088516;28;20032;-60
2023/10/26 00:52:26;;;;;;;1.60;1.00;;;;;;;;;;5090629;28;20054;-61
2023/10/26 00:54:53;;;;;;;0.93;0.73;;;;;;;;;;5073524;28;20031;-59
2023/10/26 00:57:22;;;;;;;2.13;1.00;;;;;;;;;;5073643;28;20416;-59
2023/10/26 00:59:49;;;;;;;5.33;1.77;;;;;;;;;;5073194;28;20031;-59
2023/10/26 01:02:16;;;;;;;3.97;1.30;;;;;;;;;;5073483;28;20039;-59
2023/10/26 01:04:43;;;;;;;1.20;0.77;;;;;;;;;;5070897;28;20020;-59
2023/10/26 01:07:09;;;;;;;4.37;1.90;;;;;;;;;;5068309;28;20054;-59
2023/10/26 01:09:37;;;;;;;8.30;2.37;;;;;;;;;;5067907;28;20028;-59
2023/10/26 01:12:04;;;;;;;5.03;1.10;;;;;;;;;;5067991;28;20036;-60
2023/10/26 01:14:31;;;;;;;5.43;2.07;;;;;;;;;;5069678;28;20510;-59
2023/10/26 01:16:58;;;;;;;1.43;0.87;;;;;;;;;;5073126;28;20028;-59
2023/10/26 01:19:45;;;;;;;1.40;0.90;;;;;;;;;;5072707;28;20027;-59
2023/10/26 01:22:12;;;;;;;1.60;0.63;;;;;;;;;;5073008;28;20527;-59
2023/10/26 01:24:39;;;;;;;6.07;1.00;;;;;;;;;;5072756;28;20021;-59
2023/10/26 01:27:06;;;;;;;11.40;1.50;;;;;;;;;;5070854;28;20017;-60
2023/10/26 01:29:33;;;;;;;3.27;1.33;;;;;;;;;;5067566;28;20056;-59
2023/10/26 01:32:00;;;;;;;1.70;0.87;;;;;;;;;;5067721;28;20111;-60
2023/10/26 01:34:27;;;;;;;0.97;0.63;;;;;;;;;;5067631;28;20031;-59
2023/10/26 01:36:53;;;;;;;1.37;0.80;;;;;;;;;;5069847;28;20032;-59
2023/10/26 01:39:20;;;;;;;1.40;0.80;;;;;;;;;;5072292;28;20553;-59
2023/10/26 01:41:47;;;;;;;2.10;1.10;;;;;;;;;;5072666;28;20375;-59
2023/10/26 01:44:14;;;;;;;1.30;0.80;;;;;;;;;;5072402;28;20421;-59
2023/10/26 01:46:40;;;;;;;1.83;1.13;;;;;;;;;;5072432;28;20082;-59
2023/10/26 01:49:07;;;;;;;1.63;0.93;;;;;;;;;;5071178;28;20032;-59
2023/10/26 01:51:34;;;;;;;2.40;1.13;;;;;;;;;;5067245;28;20437;-59
2023/10/26 01:54:01;;;;;;;1.20;0.83;;;;;;;;;;5067419;28;20362;-59
2023/10/26 01:56:28;;;;;;;1.93;1.10;;;;;;;;;;5067437;28;20028;-59
2023/10/26 01:58:55;;;;;;;1.40;0.83;;;;;;;;;;5067385;28;20028;-59
2023/10/26 02:01:21;;;;;;;5.00;1.27;;;;;;;;;;5072412;28;20017;-59
2023/10/26 02:03:48;;;;;;;0.57;0.47;;;;;;;;;;5072409;28;20021;-59
2023/10/26 02:06:15;;;;;;;2.20;1.20;;;;;;;;;;5072289;28;20024;-59
2023/10/26 02:08:41;;;;;;;1.60;1.13;;;;;;;;;;5072246;28;20490;-59
2023/10/26 02:11:08;;;;;;;28.57;1.90;;;;;;;;;;5071772;28;20501;-59
2023/10/26 02:13:35;;;;;;;4.43;1.90;;;;;;;;;;5066835;28;20506;-59
2023/10/26 02:16:02;;;;;;;2.23;1.47;;;;;;;;;;5082936;28;20114;-59
2023/10/26 02:18:30;;;;;;;3.30;1.77;;;;;;;;;;5079783;28;20028;-59
2023/10/26 02:20:56;;;;;;;5.27;1.77;;;;;;;;;;5067170;28;20031;-59
2023/10/26 02:23:23;;;;;;;2.97;1.90;;;;;;;;;;5071481;28;20017;-59
2023/10/26 02:25:50;;;;;;;3.37;1.87;;;;;;;;;;5072171;28;20445;-59
2023/10/26 02:28:19;;;;;;;1.87;1.17;;;;;;;;;;5071975;28;20487;-59
2023/10/26 02:30:46;;;;;;;3.37;1.60;;;;;;;;;;5071623;28;20115;-59
2023/10/26 02:33:13;;;;;;;1.70;1.30;;;;;;;;;;5071920;28;20028;-58
2023/10/26 02:35:39;;;;;;;1.70;1.23;;;;;;;;;;5067339;28;20020;-58
2023/10/26 02:38:06;;;;;;;3.67;1.23;;;;;;;;;;5066981;28;20077;-59
2023/10/26 02:40:36;;;;;;;2.43;1.43;;;;;;;;;;5066946;28;20078;-59
2023/10/26 02:43:03;;;;;;;3.90;2.13;;;;;;;;;;5066693;28;20483;-59
2023/10/26 02:45:33;;;;;;;2.57;1.10;;;;;;;;;;5070600;28;20024;-59
2023/10/26 02:48:00;;;;;;;1.97;1.40;;;;;;;;;;5071079;28;20033;-59
2023/10/26 02:50:27;;;;;;;2.40;1.40;;;;;;;;;;5070349;28;20407;-58
2023/10/26 02:52:54;;;;;;;1.00;0.73;;;;;;;;;;5073987;28;20063;-59
2023/10/26 02:55:20;;;;;;;3.37;1.33;;;;;;;;;;5074785;28;20021;-58
2023/10/26 02:57:48;;;;;;;1.73;0.90;;;;;;;;;;5077031;28;20375;-58
2023/10/26 03:00:16;;;;;;;10.00;1.30;;;;;;;;;;5071639;28;20052;-58
2023/10/26 03:02:43;;;;;;;2.77;1.37;;;;;;;;;;5080947;28;20381;-59
2023/10/26 03:05:09;;;;;;;1.73;0.90;;;;;;;;;;5090429;28;20799;-58
2023/10/26 03:07:36;;;;;;;3.07;1.83;;;;;;;;;;5082156;28;20021;-57
2023/10/26 03:10:05;;;;;;;1.93;1.40;;;;;;;;;;5079718;28;20021;-59
2023/10/26 03:12:31;;;;;;;2.33;1.57;;;;;;;;;;5075263;28;20039;-58
2023/10/26 03:14:58;;;;;;;1.73;1.27;;;;;;;;;;5075523;28;20020;-58
2023/10/26 03:17:25;;;;;;;3.93;2.00;;;;;;;;;;5088567;28;20046;-58
2023/10/26 03:19:51;;;;;;;3.37;1.60;;;;;;;;;;5065031;28;20024;-58
2023/10/26 03:22:18;;;;;;;2.27;1.33;;;;;;;;;;5088777;28;20497;-58
2023/10/26 03:24:45;;;;;;;2.20;1.33;;;;;;;;;;5089963;28;20465;-58
2023/10/26 03:27:11;;;;;;;1.50;1.10;;;;;;;;;;5070261;28;20024;-58
2023/10/26 03:29:38;;;;;;;2.10;1.23;;;;;;;;;;5072163;28;20554;-58
2023/10/26 03:32:06;;;;;;;4.37;1.67;;;;;;;;;;5081164;28;20048;-58
2023/10/26 03:34:34;;;;;;;5.10;1.23;;;;;;;;;;5091197;28;20036;-58
2023/10/26 03:37:01;;;;;;;1.33;0.87;;;;;;;;;;5091623;28;20024;-58
2023/10/26 03:39:27;;;;;;;1.70;1.10;;;;;;;;;;5095547;28;20489;-58
2023/10/26 03:41:54;;;;;;;1.80;1.20;;;;;;;;;;5092678;28;20017;-58
2023/10/26 03:44:20;;;;;;;0.77;0.57;;;;;;;;;;5090020;28;20035;-58
2023/10/26 03:46:47;;;;;;;1.27;0.70;;;;;;;;;;5089607;28;20428;-58
2023/10/26 03:49:14;;;;;;;1.27;0.73;;;;;;;;;;5088508;28;20020;-59
2023/10/26 03:51:40;;;;;;;0.37;0.33;;;;;;;;;;5091166;28;20371;-58
2023/10/26 03:54:07;;;;;;;2.10;0.90;;;;;;;;;;5078664;28;20035;-58
2023/10/26 03:56:34;;;;;;;0.63;0.50;;;;;;;;;;5074661;28;20101;-58
2023/10/26 03:59:00;;;;;;;0.20;0.20;;;;;;;;;;5074731;28;20056;-58
2023/10/26 04:01:27;;;;;;;0.73;0.50;;;;;;;;;;5074320;28;20104;-58
2023/10/26 04:03:53;;;;;;;0.23;0.20;;;;;;;;;;5072715;28;20371;-58
2023/10/26 04:06:20;;;;;;;9.60;0.83;;;;;;;;;;5069449;28;20434;-58
2023/10/26 04:08:47;;;;;;;0.50;0.30;;;;;;;;;;5069326;28;20021;-59
2023/10/26 04:11:17;;;;;;;1.80;0.73;;;;;;;;;;5069231;28;20325;-58
2023/10/26 04:13:44;;;;;;;0.63;0.37;;;;;;;;;;5069576;28;20028;-58
2023/10/26 04:16:11;;;;;;;18.87;0.93;;;;;;;;;;5074565;28;20052;-58
2023/10/26 04:18:38;;;;;;;0.37;0.30;;;;;;;;;;5074066;28;20035;-58
2023/10/26 04:21:04;;;;;;;0.70;0.40;;;;;;;;;;5087035;28;20111;-58
2023/10/26 04:23:31;;;;;;;1.00;0.60;;;;;;;;;;5078267;28;20375;-58
2023/10/26 04:25:58;;;;;;;1.23;0.60;;;;;;;;;;5073526;28;20017;-59
2023/10/26 04:28:25;;;;;;;0.60;0.30;;;;;;;;;;5068951;28;20035;-58
2023/10/26 04:30:53;;;;;;;1.07;0.40;;;;;;;;;;5068972;28;20025;-58
2023/10/26 04:33:19;;;;;;;0.27;0.20;;;;;;;;;;5069141;28;20024;-58
2023/10/26 04:35:47;;;;;;;0.50;0.40;;;;;;;;;;5068681;28;20016;-61
2023/10/26 04:38:14;;;;;;;0.63;0.47;;;;;;;;;;5073484;28;20469;-58
2023/10/26 04:40:41;;;;;;;8.07;0.50;;;;;;;;;;5074120;28;20375;-58
2023/10/26 04:43:11;;;;;;;0.83;0.50;;;;;;;;;;5073658;28;20166;-58
2023/10/26 04:45:38;;;;;;;0.50;0.33;;;;;;;;;;5073709;28;20044;-58
2023/10/26 04:48:04;;;;;;;2.00;0.80;;;;;;;;;;5073655;28;20086;-58
2023/10/26 04:50:32;;;;;;;1.40;0.90;;;;;;;;;;5068542;28;20453;-59
2023/10/26 04:53:02;;;;;;;3.67;1.17;;;;;;;;;;5068171;28;20036;-58
2023/10/26 04:55:34;;;;;;;1.23;0.70;;;;;;;;;;5068304;28;20471;-58
2023/10/26 04:58:01;;;;;;;1.50;0.70;;;;;;;;;;5084019;28;20032;-58
2023/10/26 05:00:28;;;;;;;0.37;0.30;;;;;;;;;;5089543;28;20419;-58
2023/10/26 05:02:55;;;;;;;0.60;0.33;;;;;;;;;;5073688;28;20028;-58
2023/10/26 05:05:22;;;;;;;0.60;0.50;;;;;;;;;;5073315;28;20023;-58
2023/10/26 05:07:48;;;;;;;0.43;0.30;;;;;;;;;;5073248;28;20033;-58
2023/10/26 05:10:15;;;;;;;0.47;0.40;;;;;;;;;;5072961;28;20093;-58
2023/10/26 05:12:41;;;;;;;0.20;0.20;;;;;;;;;;5068221;28;20028;-58
2023/10/26 05:15:08;;;;;;;1.70;0.60;;;;;;;;;;5067334;28;20021;-58
2023/10/26 05:17:37;;;;;;;0.33;0.33;;;;;;;;;;5068118;28;20020;-58
2023/10/26 05:20:03;;;;;;;0.80;0.40;;;;;;;;;;5067935;28;20036;-58
2023/10/26 05:22:32;;;;;;;1.10;0.60;;;;;;;;;;5071521;28;20024;-59
2023/10/26 05:25:04;;;;;;;1.63;0.90;;;;;;;;;;5072874;28;20086;-58
2023/10/26 05:27:32;;;;;;;0.97;0.60;;;;;;;;;;5072553;28;20045;-58
2023/10/26 05:29:58;;;;;;;0.93;0.60;;;;;;;;;;5089918;28;20016;-58
2023/10/26 05:32:25;;;;;;;3.23;0.70;;;;;;;;;;5093229;28;20039;-58
2023/10/26 05:34:52;;;;;;;1.97;0.70;;;;;;;;;;5089192;28;20848;-58
2023/10/26 05:37:19;;;;;;;0.50;0.43;;;;;;;;;;5087912;28;20067;-58
2023/10/26 05:39:46;;;;;;;0.90;0.60;;;;;;;;;;5087727;28;20024;-58
2023/10/26 05:42:13;;;;;;;1.23;0.70;;;;;;;;;;5079748;28;20074;-58
2023/10/26 05:44:39;;;;;;;0.50;0.43;;;;;;;;;;5070299;28;20028;-58
2023/10/26 05:47:06;;;;;;;2.40;0.80;;;;;;;;;;5072664;28;20024;-58
2023/10/26 05:49:34;;;;;;;2.07;0.60;;;;;;;;;;5072217;28;20466;-58
2023/10/26 05:52:01;;;;;;;0.90;0.60;;;;;;;;;;5072406;28;20489;-58
2023/10/26 05:54:28;;;;;;;0.83;0.40;;;;;;;;;;5072561;28;20383;-58
2023/10/26 05:56:55;;;;;;;0.80;0.67;;;;;;;;;;5069098;28;20037;-58
2023/10/26 05:59:22;;;;;;;1.33;0.67;;;;;;;;;;5067400;28;20036;-58
2023/10/26 06:01:49;;;;;;;0.93;0.60;;;;;;;;;;5066952;28;20028;-58
2023/10/26 06:04:15;;;;;;;0.30;0.30;;;;;;;;;;5067410;28;20032;-58
2023/10/26 06:06:42;;;;;;;1.00;0.70;;;;;;;;;;5069118;28;20029;-58
2023/10/26 06:09:10;;;;;;;1.00;0.67;;;;;;;;;;5072451;28;20073;-58
2023/10/26 06:11:40;;;;;;;2.20;0.60;;;;;;;;;;5071918;28;20043;-58
2023/10/26 06:14:06;;;;;;;1.87;1.07;;;;;;;;;;5072166;28;20094;-59
2023/10/26 06:16:33;;;;;;;5.53;0.63;;;;;;;;;;5072213;28;20493;-58
2023/10/26 06:19:00;;;;;;;0.50;0.37;;;;;;;;;;5069376;28;20024;-58
2023/10/26 06:21:27;;;;;;;0.87;0.50;;;;;;;;;;5067046;28;20054;-58
2023/10/26 06:23:53;;;;;;;1.60;0.73;;;;;;;;;;5066529;28;20033;-59
2023/10/26 06:26:20;;;;;;;0.60;0.50;;;;;;;;;;5066980;28;20032;-58
2023/10/26 06:28:47;;;;;;;1.13;0.83;;;;;;;;;;5068502;28;20020;-58
2023/10/26 06:31:14;;;;;;;1.00;0.63;;;;;;;;;;5072161;28;20040;-58
2023/10/26 06:33:41;;;;;;;24.03;0.73;;;;;;;;;;5071908;28;20033;-58
2023/10/26 06:36:09;;;;;;;4.70;0.73;;;;;;;;;;5075571;28;20075;-58
2023/10/26 06:38:39;;;;;;;1.13;0.80;;;;;;;;;;5074036;28;20390;-58
2023/10/26 06:41:09;;;;;;;0.57;0.50;;;;;;;;;;5089662;28;20141;-58
2023/10/26 06:43:36;;;;;;;1.10;0.80;;;;;;;;;;5087047;28;20028;-58
2023/10/26 06:46:03;;;;;;;0.80;0.70;;;;;;;;;;5087058;28;20039;-58
2023/10/26 06:48:30;;;;;;;1.20;0.70;;;;;;;;;;5087131;28;20016;-58
2023/10/26 06:51:04;;;;;;;3.43;1.07;;;;;;;;;;5088085;28;20063;-58
2023/10/26 06:53:31;;;;;;;0.90;0.70;;;;;;;;;;5078349;28;20025;-58
2023/10/26 06:55:58;;;;;;;2.10;0.77;;;;;;;;;;5071529;28;20031;-57
2023/10/26 06:58:24;;;;;;;2.13;1.50;;;;;;;;;;5053820;28;20055;-58
2023/10/26 07:00:51;;;;;;;5.70;1.20;;;;;;;;;;5071797;28;20033;-58
2023/10/26 07:03:18;;;;;;;1.23;0.63;;;;;;;;;;5070410;28;20090;-58
2023/10/26 07:05:44;;;;;;;1.70;0.93;;;;;;;;;;5066669;28;20078;-58
2023/10/26 07:08:11;;;;;;;2.20;1.13;;;;;;;;;;5067843;28;20424;-58
2023/10/26 07:10:40;;;;;;;0.80;0.60;;;;;;;;;;5086575;28;20115;-58
2023/10/26 07:13:07;;;;;;;0.97;0.70;;;;;;;;;;5086636;28;20035;-58
2023/10/26 07:15:35;;;;;;;0.60;0.50;;;;;;;;;;5091624;28;20065;-58
2023/10/26 07:18:02;;;;;;;1.97;0.93;;;;;;;;;;5092031;28;20016;-58
2023/10/26 07:20:28;;;;;;;1.37;0.97;;;;;;;;;;5091802;28;20013;-58
2023/10/26 07:22:55;;;;;;;1.07;0.60;;;;;;;;;;5091932;28;20024;-58
2023/10/26 07:25:22;;;;;;;1.67;0.87;;;;;;;;;;5077878;28;20469;-59
2023/10/26 07:27:48;;;;;;;1.70;0.97;;;;;;;;;;5066063;28;20585;-58
2023/10/26 07:30:15;;;;;;;1.07;0.83;;;;;;;;;;5066476;28;20055;-58
2023/10/26 07:32:42;;;;;;;1.43;1.00;;;;;;;;;;5066041;28;20036;-59
2023/10/26 07:35:08;;;;;;;3.83;1.00;;;;;;;;;;5066366;28;20510;-58
2023/10/26 07:37:37;;;;;;;1.63;1.17;;;;;;;;;;5071787;28;20029;-58
2023/10/26 07:40:06;;;;;;;0.83;0.67;;;;;;;;;;5075217;28;20039;-58
2023/10/26 07:42:34;;;;;;;2.07;1.10;;;;;;;;;;5091543;28;20024;-58
2023/10/26 07:45:01;;;;;;;1.43;0.90;;;;;;;;;;5094984;28;20035;-58
2023/10/26 07:47:28;;;;;;;1.73;1.03;;;;;;;;;;5095151;28;20089;-57
2023/10/26 07:49:55;;;;;;;1.60;1.30;;;;;;;;;;5089525;28;20054;-58
2023/10/26 07:52:21;;;;;;;2.07;1.60;;;;;;;;;;5090051;28;20046;-58
2023/10/26 07:54:50;;;;;;;1.30;1.07;;;;;;;;;;5089905;28;20024;-58
2023/10/26 07:57:19;;;;;;;1.07;0.80;;;;;;;;;;5085015;28;20032;-58
2023/10/26 07:59:45;;;;;;;2.83;1.40;;;;;;;;;;5074064;28;20028;-58
2023/10/26 08:02:12;;;;;;;1.57;1.10;;;;;;;;;;5074424;28;20387;-58
2023/10/26 08:04:39;;;;;;;1.50;1.27;;;;;;;;;;5074693;28;20036;-58
2023/10/26 08:07:05;;;;;;;2.03;1.43;;;;;;;;;;5074395;28;20024;-58
2023/10/26 08:09:32;;;;;;;2.67;1.17;;;;;;;;;;5074464;28;20056;-58
2023/10/26 08:11:59;;;;;;;2.30;1.67;;;;;;;;;;5069845;28;20573;-58
2023/10/26 08:14:27;;;;;;;5.07;1.83;;;;;;;;;;5081165;28;20028;-58
2023/10/26 08:16:54;;;;;;;3.00;2.17;;;;;;;;;;5089313;28;20055;-57
2023/10/26 08:19:21;;;;;;;2.37;1.87;;;;;;;;;;5089241;28;20028;-58
2023/10/26 08:21:48;;;;;;;2.00;1.30;;;;;;;;;;5093193;28;20029;-58
2023/10/26 08:24:16;;;;;;;4.13;2.00;;;;;;;;;;5094315;28;20035;-58
2023/10/26 08:26:42;;;;;;;2.03;1.60;;;;;;;;;;5093996;28;20051;-58
2023/10/26 08:29:09;;;;;;;2.80;1.80;;;;;;;;;;5093674;28;20074;-58
2023/10/26 08:31:36;;;;;;;3.17;2.07;;;;;;;;;;5074156;28;20055;-57
2023/10/26 08:34:03;;;;;;;2.13;1.57;;;;;;;;;;5070382;28;20028;-57
2023/10/26 08:36:29;;;;;;;1.70;1.30;;;;;;;;;;5068870;28;20483;-58
2023/10/26 08:38:56;;;;;;;1.67;1.20;;;;;;;;;;5068806;28;20090;-58
2023/10/26 08:41:23;;;;;;;1.93;1.10;;;;;;;;;;5068878;28;20025;-58
2023/10/26 08:43:49;;;;;;;1.47;1.13;;;;;;;;;;5071157;28;20429;-58
2023/10/26 08:46:18;;;;;;;2.00;1.50;;;;;;;;;;5082106;28;20016;-58
2023/10/26 08:48:46;;;;;;;3.87;1.67;;;;;;;;;;5093962;28;20058;-58
2023/10/26 08:51:13;;;;;;;2.07;1.47;;;;;;;;;;5093583;28;20036;-58
2023/10/26 08:53:40;;;;;;;3.00;1.93;;;;;;;;;;5093692;28;20028;-57
2023/10/26 08:56:12;;;;;;;3.10;1.50;;;;;;;;;;5090791;28;20028;-58
2023/10/26 08:58:39;;;;;;;5.57;2.23;;;;;;;;;;5088691;28;20050;-58
2023/10/26 09:01:06;;;;;;;2.17;1.60;;;;;;;;;;5087892;28;20020;-59
2023/10/26 09:03:34;;;;;;;1.47;1.10;;;;;;;;;;5068187;28;20024;-58
2023/10/26 09:06:00;;;;;;;2.37;1.60;;;;;;;;;;5070792;28;20105;-58
2023/10/26 09:08:28;;;;;;;2.63;1.70;;;;;;;;;;5073303;28;20017;-57
2023/10/26 09:10:55;;;;;;;3.17;2.07;;;;;;;;;;5073022;28;20037;-57
2023/10/26 09:13:25;;;;;;;5.87;1.90;;;;;;;;;;5073232;28;20378;-58
2023/10/26 09:15:53;;;;;;;3.40;2.20;;;;;;;;;;5073264;28;20438;-58
2023/10/26 09:18:23;;;;;;;2.60;1.83;;;;;;;;;;5081494;28;20031;-58
2023/10/26 09:21:06;;;;;;;2.63;2.10;;;;;;;;;;5088157;28;20051;-58
2023/10/26 09:23:34;;;;;;;2.93;1.97;;;;;;;;;;5088216;28;20466;-58
2023/10/26 09:26:05;;;;;;;3.57;1.80;;;;;;;;;;5088093;28;20377;-58
2023/10/26 09:28:52;;;;;;;1.93;1.50;;;;;;;;;;5090668;28;20024;-58
2023/10/26 09:31:19;;;;;;;3.40;1.93;;;;;;;;;;5093273;28;20098;-58
2023/10/26 09:33:46;;;;;;;3.60;1.87;;;;;;;;;;5091574;28;20378;-58
2023/10/26 09:36:14;;;;;;;2.00;1.30;;;;;;;;;;5085944;28;20498;-58
2023/10/26 09:38:41;;;;;;;1.40;1.10;;;;;;;;;;5072848;28;20028;-57
2023/10/26 09:41:11;;;;;;;2.20;1.67;;;;;;;;;;5069109;28;20376;-58
2023/10/26 09:43:40;;;;;;;5.63;2.10;;;;;;;;;;5067171;28;20024;-58
2023/10/26 09:46:07;;;;;;;2.67;1.80;;;;;;;;;;5067456;28;20792;-58
2023/10/26 09:48:34;;;;;;;7.17;2.40;;;;;;;;;;5085192;28;20023;-58
2023/10/26 09:51:01;;;;;;;5.57;1.83;;;;;;;;;;5090423;28;20488;-58
2023/10/26 09:53:38;;;;;;;11.93;1.40;;;;;;;;;;5092893;28;20065;-58
2023/10/26 09:56:06;;;;;;;2.73;1.90;;;;;;;;;;5092656;28;20024;-58
2023/10/26 09:58:38;;;;;;;5.53;2.07;;;;;;;;;;5092681;28;20047;-58
2023/10/26 10:01:25;;;;;;;3.23;1.93;;;;;;;;;;5092114;28;20040;-58
2023/10/26 10:03:52;;;;;;;1.97;1.37;;;;;;;;;;5075625;28;20036;-58
2023/10/26 10:06:36;;;;;;;3.63;1.63;;;;;;;;;;5067063;28;20043;-58
2023/10/26 10:09:03;;;;;;;3.10;2.08;;;;;;;;;;5067492;28;20427;-58
2023/10/26 10:11:30;;;;;;;2.07;1.37;;;;;;;;;;5067104;28;20117;-58
2023/10/26 10:13:56;;;;;;;2.63;1.73;;;;;;;;;;5071097;28;20047;-58
2023/10/26 10:16:35;;;;;;;1.83;1.10;;;;;;;;;;5072341;28;20031;-58
2023/10/26 10:19:18;;;;;;;12.10;1.13;;;;;;;;;;5073073;28;20027;-58
2023/10/26 10:21:44;;;;;;;3.93;1.97;;;;;;;;;;5072288;28;20047;-57
2023/10/26 10:24:11;;;;;;;3.70;1.97;;;;;;;;;;5072072;28;20078;-57
2023/10/26 10:26:56;;;;;;;2.70;1.67;;;;;;;;;;5074860;28;20051;-58
2023/10/26 10:29:23;;;;;;;6.95;1.60;;;;;;;;;;5086960;28;20055;-57
2023/10/26 10:31:49;;;;;;;2.10;1.23;;;;;;;;;;5085320;28;20488;-57
2023/10/26 10:34:19;;;;;;;2.37;1.57;;;;;;;;;;5073583;28;20020;-58
2023/10/26 10:37:14;;;;;;;4.77;2.27;;;;;;;;;;5091225;28;20115;-58
2023/10/26 10:40:00;;;;;;;2.30;1.73;;;;;;;;;;5079007;28;20024;-57
2023/10/26 10:42:27;;;;;;;2.97;1.65;;;;;;;;;;5092240;28;20024;-57
2023/10/26 10:44:54;;;;;;;1.93;1.20;;;;;;;;;;5092213;28;20151;-57
2023/10/26 10:47:20;;;;;;;4.23;2.10;;;;;;;;;;5075075;28;20032;-58
2023/10/26 10:49:47;;;;;;;2.07;1.43;;;;;;;;;;5066883;28;20020;-57
2023/10/26 10:52:15;;;;;;;1.97;1.47;;;;;;;;;;5066657;28;20025;-58
2023/10/26 10:54:49;;;;;;;2.37;1.70;;;;;;;;;;5065954;28;20032;-58
2023/10/26 10:57:16;;;;;;;3.17;2.25;;;;;;;;;;5067789;28;20139;-58
2023/10/26 10:59:42;;;;;;;7.43;2.50;;;;;;;;;;5071804;28;20099;-58
2023/10/26 11:02:10;;;;;;;6.80;2.23;;;;;;;;;;5077052;28;20017;-57
2023/10/26 11:04:57;;;;;;;2.40;1.87;;;;;;;;;;5092090;28;20036;-57
2023/10/26 11:07:27;;;;;;;1.93;1.43;;;;;;;;;;5091646;28;20077;-58
2023/10/26 11:09:57;;;;;;;3.03;2.20;;;;;;;;;;5071534;28;20032;-58
2023/10/26 11:12:23;;;;;;;6.27;2.60;;;;;;;;;;5066881;28;20037;-57
2023/10/26 11:14:52;;;;;;;7.10;3.33;;;;;;;;;;5070393;28;20025;-57
2023/10/26 11:17:20;;;;;;;4.60;3.30;;;;;;;;;;5070293;28;20067;-58
2023/10/26 11:19:47;;;;;;;4.20;3.07;;;;;;;;;;5071701;28;20020;-58
2023/10/26 11:22:15;;;;;;;4.30;3.20;;;;;;;;;;5076785;28;20078;-57
2023/10/26 11:24:43;;;;;;;2.87;2.47;;;;;;;;;;5095594;28;20024;-57
2023/10/26 11:27:13;;;;;;;4.60;3.13;;;;;;;;;;5095629;28;20030;-58
2023/10/26 11:29:41;;;;;;;4.13;3.20;;;;;;;;;;5095616;28;20026;-57
2023/10/26 11:32:20;;;;;;;3.50;2.80;;;;;;;;;;5093565;28;20028;-58
2023/10/26 11:35:06;;;;;;;4.00;2.90;;;;;;;;;;5089919;28;20028;-57
2023/10/26 11:37:35;;;;;;;5.60;3.97;;;;;;;;;;5090390;28;20078;-58
2023/10/26 11:40:03;;;;;;;3.50;2.70;;;;;;;;;;5074409;28;20056;-58
2023/10/26 11:42:47;;;;;;;3.80;3.03;;;;;;;;;;5071762;28;20025;-58
2023/10/26 11:45:15;;;;;;;4.32;3.35;;;;;;;;;;5074840;28;20025;-58
2023/10/26 11:47:46;;;;;;;4.30;3.20;;;;;;;;;;5074964;28;20025;-58
2023/10/26 11:50:22;;;;;;;11.37;4.47;;;;;;;;;;5074722;28;20095;-58
2023/10/26 11:52:50;;;;;;;3.90;2.83;;;;;;;;;;5074820;28;20046;-58
2023/10/26 11:55:17;;;;;;;4.50;3.00;;;;;;;;;;5078479;28;20026;-57
2023/10/26 11:57:45;;;;;;;3.67;2.73;;;;;;;;;;5089553;28;20737;-58
2023/10/26 12:00:13;;;;;;;5.70;3.93;;;;;;;;;;5089838;28;20019;-58
2023/10/26 12:02:39;;;;;;;3.13;2.43;;;;;;;;;;5089582;28;20089;-57
2023/10/26 12:05:07;;;;;;;4.40;3.07;;;;;;;;;;5092288;28;20381;-57
2023/10/26 12:07:34;;;;;;;9.10;3.37;;;;;;;;;;5094865;28;20486;-57
2023/10/26 12:10:04;;;;;;;6.47;3.53;;;;;;;;;;5094634;28;20058;-57
2023/10/26 12:12:31;;;;;;;6.50;2.93;;;;;;;;;;5080659;28;20035;-58
2023/10/26 12:14:58;;;;;;;3.87;3.03;;;;;;;;;;5074101;28;20368;-58
2023/10/26 12:17:24;;;;;;;4.87;3.20;;;;;;;;;;5071797;28;20033;-58
2023/10/26 12:19:51;;;;;;;3.87;2.57;;;;;;;;;;5069414;28;20039;-58
2023/10/26 12:22:19;;;;;;;12.63;3.67;;;;;;;;;;5073492;28;20460;-58
2023/10/26 12:24:46;;;;;;;5.03;3.67;;;;;;;;;;5089027;28;20032;-57
2023/10/26 12:27:16;;;;;;;4.37;3.07;;;;;;;;;;5091265;28;20016;-58
2023/10/26 12:29:46;;;;;;;4.37;3.30;;;;;;;;;;5094520;28;20028;-59
2023/10/26 12:32:12;;;;;;;4.77;3.60;;;;;;;;;;5093835;28;20081;-57
2023/10/26 12:34:39;;;;;;;4.80;3.80;;;;;;;;;;5094286;28;20567;-57
2023/10/26 12:37:06;;;;;;;6.23;2.97;;;;;;;;;;5084193;28;20029;-58
2023/10/26 12:39:33;;;;;;;4.23;3.30;;;;;;;;;;5071472;28;20028;-58
2023/10/26 12:42:00;;;;;;;4.63;3.20;;;;;;;;;;5068918;28;20499;-57
2023/10/26 12:44:27;;;;;;;8.10;4.13;;;;;;;;;;5068476;28;20068;-58
2023/10/26 12:46:54;;;;;;;4.77;3.77;;;;;;;;;;5068397;28;20033;-58
2023/10/26 12:49:21;;;;;;;5.20;3.90;;;;;;;;;;5069522;28;20028;-58
2023/10/26 12:51:48;;;;;;;3.53;2.57;;;;;;;;;;5073482;28;20481;-58
2023/10/26 12:54:15;;;;;;;4.60;3.53;;;;;;;;;;5089936;28;20039;-57
2023/10/26 12:56:42;;;;;;;3.20;2.83;;;;;;;;;;5093983;28;20023;-58
2023/10/26 12:59:09;;;;;;;4.97;3.37;;;;;;;;;;5093946;28;20054;-58
2023/10/26 13:01:36;;;;;;;5.83;3.83;;;;;;;;;;5092350;28;20470;-57
2023/10/26 13:04:04;;;;;;;5.73;4.10;;;;;;;;;;5088762;28;20145;-57
2023/10/26 13:06:33;;;;;;;5.50;4.03;;;;;;;;;;5088275;28;20036;-58
2023/10/26 13:09:00;;;;;;;4.00;3.20;;;;;;;;;;5085768;28;20111;-57
2023/10/26 13:11:27;;;;;;;6.17;3.70;;;;;;;;;;5068719;28;20056;-57
2023/10/26 13:13:54;;;;;;;7.57;4.30;;;;;;;;;;5073215;28;20025;-58
2023/10/26 13:16:20;;;;;;;5.70;4.10;;;;;;;;;;5073103;28;20344;-57
2023/10/26 13:18:47;;;;;;;5.40;4.27;;;;;;;;;;5073207;28;20024;-57
2023/10/26 13:21:14;;;;;;;4.50;3.47;;;;;;;;;;5073053;28;20043;-57
2023/10/26 13:23:41;;;;;;;4.10;3.40;;;;;;;;;;5071983;28;20031;-57
2023/10/26 13:26:07;;;;;;;7.23;3.77;;;;;;;;;;5077811;28;20039;-57
2023/10/26 13:28:34;;;;;;;3.33;2.70;;;;;;;;;;5088258;28;20036;-58
2023/10/26 13:31:01;;;;;;;6.60;4.10;;;;;;;;;;5079731;28;20071;-58
2023/10/26 13:33:27;;;;;;;5.67;3.77;;;;;;;;;;5067811;28;20426;-57
2023/10/26 13:35:54;;;;;;;4.63;3.00;;;;;;;;;;5072205;28;20495;-58
2023/10/26 13:38:20;;;;;;;5.33;3.20;;;;;;;;;;5076844;28;20027;-57
2023/10/26 13:40:47;;;;;;;5.27;3.87;;;;;;;;;;5093132;28;20102;-58
2023/10/26 13:43:17;;;;;;;6.20;3.93;;;;;;;;;;5090833;28;20482;-58
2023/10/26 13:45:45;;;;;;;9.87;3.90;;;;;;;;;;5092666;28;20100;-57
2023/10/26 13:48:11;;;;;;;5.53;3.53;;;;;;;;;;5087428;28;20508;-57
2023/10/26 13:50:41;;;;;;;5.77;3.80;;;;;;;;;;5087366;28;20694;-58
2023/10/26 13:53:08;;;;;;;5.00;3.73;;;;;;;;;;5076982;28;20056;-58
2023/10/26 13:55:38;;;;;;;17.50;5.03;;;;;;;;;;5067078;28;20021;-58
2023/10/26 13:58:07;;;;;;;7.00;4.73;;;;;;;;;;5071742;28;20052;-58
2023/10/26 14:00:37;;;;;;;9.13;4.47;;;;;;;;;;5072160;28;20013;-58
2023/10/26 14:03:04;;;;;;;4.93;4.00;;;;;;;;;;5072269;28;20028;-57
2023/10/26 14:05:31;;;;;;;7.47;4.23;;;;;;;;;;5072436;28;20028;-57
2023/10/26 14:07:58;;;;;;;5.47;3.87;;;;;;;;;;5072293;28;20020;-58
2023/10/26 14:10:25;;;;;;;8.47;5.27;;;;;;;;;;5084012;28;20144;-58
2023/10/26 14:12:52;;;;;;;4.77;2.77;;;;;;;;;;5087249;28;20024;-58
2023/10/26 14:15:18;;;;;;;15.03;3.50;;;;;;;;;;5086720;28;20028;-57
2023/10/26 14:17:45;;;;;;;5.00;3.77;;;;;;;;;;5087197;28;20024;-58
2023/10/26 14:20:12;;;;;;;26.90;4.13;;;;;;;;;;5091249;28;20074;-57
2023/10/26 14:22:38;;;;;;;7.97;4.77;;;;;;;;;;5092370;28;20024;-58
2023/10/26 14:25:05;;;;;;;5.47;4.13;;;;;;;;;;5086504;28;20024;-58
2023/10/26 14:27:32;;;;;;;4.60;3.67;;;;;;;;;;5071985;28;20078;-57
2023/10/26 14:29:58;;;;;;;12.77;4.27;;;;;;;;;;5071812;28;20020;-58
2023/10/26 14:32:25;;;;;;;5.80;3.73;;;;;;;;;;5067546;28;20077;-58
2023/10/26 14:34:52;;;;;;;5.70;3.53;;;;;;;;;;5066392;28;20416;-58
2023/10/26 14:37:19;;;;;;;5.43;3.80;;;;;;;;;;5066723;28;20107;-57
2023/10/26 14:39:46;;;;;;;5.27;2.90;;;;;;;;;;5066640;28;20029;-57
2023/10/26 14:42:15;;;;;;;6.20;3.97;;;;;;;;;;5086288;28;20028;-57
2023/10/26 14:44:41;;;;;;;3.80;2.87;;;;;;;;;;5058554;28;20434;-57
2023/10/26 14:47:08;;;;;;;6.73;4.00;;;;;;;;;;5073103;28;20114;-58